createdAt,value
2023-03-23T00:00:35.148Z,92.29
2023-03-23T00:01:35.169Z,92.40
2023-03-23T00:02:35.113Z,92.50
2023-03-23T00:03:35.104Z,92.50
2023-03-23T00:04:35.083Z,92.40
2023-03-23T00:05:35.093Z,92.40
2023-03-23T00:06:35.079Z,92.40
2023-03-23T00:07:35.050Z,92.19
2023-03-23T00:08:35.035Z,92.08
2023-03-23T00:09:35.041Z,92.29
2023-03-23T00:10:35.026Z,92.29
2023-03-23T00:11:35.019Z,92.70
2023-03-23T00:12:35.004Z,93.01
2023-03-23T00:13:35.002Z,92.91
2023-03-23T00:14:34.978Z,92.80
2023-03-23T00:15:34.962Z,92.70
2023-03-23T00:16:34.959Z,92.70
2023-03-23T00:17:34.958Z,92.60
2023-03-23T00:18:34.933Z,92.60
2023-03-23T00:19:34.939Z,92.40
2023-03-23T00:20:34.908Z,92.19
2023-03-23T00:21:34.902Z,92.08
2023-03-23T00:22:34.880Z,92.08
2023-03-23T00:23:34.880Z,92.19
2023-03-23T00:24:34.863Z,92.08
2023-03-23T00:25:34.872Z,92.19
2023-03-23T00:26:35.217Z,92.40
2023-03-23T00:27:34.831Z,92.29
2023-03-23T00:28:34.810Z,92.33
2023-03-23T00:29:34.813Z,92.64
2023-03-23T00:30:34.785Z,92.85
2023-03-23T00:31:34.798Z,93.05
2023-03-23T00:32:34.797Z,93.16
2023-03-23T00:33:34.784Z,93.16
2023-03-23T00:34:34.764Z,93.05
2023-03-23T00:35:34.775Z,93.16
2023-03-23T00:36:34.738Z,93.16
2023-03-23T00:37:34.725Z,93.05
2023-03-23T00:38:34.698Z,93.05
2023-03-23T00:39:34.719Z,93.05
2023-03-23T00:40:34.686Z,93.05
2023-03-23T00:41:34.684Z,93.05
2023-03-23T00:42:34.662Z,93.05
2023-03-23T00:43:34.667Z,93.26
2023-03-23T00:44:34.626Z,93.16
2023-03-23T00:45:34.630Z,93.16
2023-03-23T00:46:34.626Z,93.05
2023-03-23T00:47:34.604Z,92.95
2023-03-23T00:48:34.606Z,92.85
2023-03-23T00:49:34.590Z,92.74
2023-03-23T00:50:39.028Z,92.95
2023-03-23T00:51:34.557Z,93.26
2023-03-23T00:52:34.537Z,93.36
2023-03-23T00:53:34.538Z,93.26
2023-03-23T00:54:34.516Z,93.46
2023-03-23T00:55:34.525Z,93.57
2023-03-23T00:56:34.508Z,93.67
2023-03-23T00:57:34.491Z,93.77
2023-03-23T00:58:34.470Z,93.87
2023-03-23T00:59:34.486Z,93.67
2023-03-23T01:00:34.487Z,93.57
2023-03-23T01:01:34.458Z,93.57
2023-03-23T01:02:34.437Z,93.67
2023-03-23T01:03:34.438Z,93.77
2023-03-23T01:04:34.412Z,93.87
2023-03-23T01:05:34.407Z,94.08
2023-03-23T01:06:34.397Z,94.39
2023-03-23T01:07:34.390Z,94.39
2023-03-23T01:08:34.378Z,94.29
2023-03-23T01:09:36.013Z,94.39
2023-03-23T01:10:34.352Z,94.39
2023-03-23T01:11:34.320Z,94.49
2023-03-23T01:12:34.333Z,94.84
2023-03-23T01:13:34.318Z,94.84
2023-03-23T01:14:34.321Z,95.05
2023-03-23T01:15:34.324Z,95.05
2023-03-23T01:16:34.272Z,95.05
2023-03-23T01:17:34.300Z,94.84
2023-03-23T01:18:34.263Z,94.64
2023-03-23T01:19:34.246Z,94.54
2023-03-23T01:20:34.223Z,94.54
2023-03-23T01:21:34.235Z,94.74
2023-03-23T01:22:34.195Z,94.95
2023-03-23T01:23:34.201Z,94.84
2023-03-23T01:24:34.205Z,94.74
2023-03-23T01:25:34.170Z,94.74
2023-03-23T01:26:34.173Z,94.95
2023-03-23T01:27:34.158Z,95.05
2023-03-23T01:28:34.144Z,95.25
2023-03-23T01:29:34.119Z,95.25
2023-03-23T01:30:34.116Z,95.36
2023-03-23T01:31:34.109Z,95.46
2023-03-23T01:32:34.094Z,95.15
2023-03-23T01:33:34.090Z,95.15
2023-03-23T01:34:34.116Z,95.25
2023-03-23T01:35:34.094Z,95.25
2023-03-23T01:36:34.045Z,95.25
2023-03-23T01:37:34.052Z,95.15
2023-03-23T01:38:34.038Z,95.05
2023-03-23T01:39:34.026Z,95.05
2023-03-23T01:40:34.036Z,95.15
2023-03-23T01:41:34.017Z,95.25
2023-03-23T01:42:33.994Z,95.46
2023-03-23T01:43:33.964Z,95.46
2023-03-23T01:44:33.971Z,95.36
2023-03-23T01:45:33.957Z,95.36
2023-03-23T01:46:33.925Z,95.46
2023-03-23T01:47:33.926Z,95.36
2023-03-23T01:48:33.906Z,95.25
2023-03-23T01:49:33.919Z,95.36
2023-03-23T01:50:33.878Z,95.25
2023-03-23T01:51:41.900Z,95.15
2023-03-23T01:52:33.893Z,95.36
2023-03-23T01:53:33.858Z,95.46
2023-03-23T01:54:33.843Z,95.67
2023-03-23T01:55:33.832Z,95.46
2023-03-23T01:56:33.827Z,95.81
2023-03-23T01:57:33.833Z,96.02
2023-03-23T01:58:33.805Z,96.02
2023-03-23T01:59:33.801Z,96.02
2023-03-23T02:00:33.790Z,96.02
2023-03-23T02:01:33.770Z,96.02
2023-03-23T02:02:33.764Z,96.02
2023-03-23T02:03:33.750Z,95.81
2023-03-23T02:04:33.731Z,95.92
2023-03-23T02:05:33.732Z,95.81
2023-03-23T02:06:33.727Z,95.92
2023-03-23T02:07:33.710Z,95.81
2023-03-23T02:08:33.687Z,95.81
2023-03-23T02:09:33.689Z,95.71
2023-03-23T02:10:33.686Z,95.50
2023-03-23T02:11:33.664Z,95.46
2023-03-23T02:12:33.652Z,95.50
2023-03-23T02:13:33.632Z,95.61
2023-03-23T02:14:33.607Z,95.81
2023-03-23T02:15:33.614Z,96.12
2023-03-23T02:16:33.610Z,96.22
2023-03-23T02:17:33.583Z,96.22
2023-03-23T02:18:33.574Z,96.22
2023-03-23T02:19:33.574Z,96.33
2023-03-23T02:20:33.558Z,96.33
2023-03-23T02:21:33.541Z,96.43
2023-03-23T02:22:33.517Z,96.33
2023-03-23T02:23:33.528Z,96.18
2023-03-23T02:24:33.536Z,96.18
2023-03-23T02:25:33.490Z,96.22
2023-03-23T02:26:33.510Z,96.28
2023-03-23T02:27:33.484Z,96.18
2023-03-23T02:28:33.466Z,96.08
2023-03-23T02:29:33.446Z,96.08
2023-03-23T02:30:33.427Z,96.43
2023-03-23T02:31:33.439Z,96.18
2023-03-23T02:32:33.436Z,96.12
2023-03-23T02:33:33.397Z,96.02
2023-03-23T02:34:33.437Z,96.02
2023-03-23T02:35:33.417Z,96.02
2023-03-23T02:36:33.372Z,96.02
2023-03-23T02:37:33.378Z,96.12
2023-03-23T02:38:33.349Z,96.22
2023-03-23T02:39:33.343Z,96.33
2023-03-23T02:40:33.311Z,96.33
2023-03-23T02:41:33.320Z,96.43
2023-03-23T02:42:33.298Z,96.53
2023-03-23T02:43:35.061Z,96.53
2023-03-23T02:44:33.284Z,96.64
2023-03-23T02:45:33.256Z,96.94
2023-03-23T02:46:33.253Z,97.05
2023-03-23T02:47:33.242Z,96.94
2023-03-23T02:48:33.246Z,97.09
2023-03-23T02:49:33.220Z,97.19
2023-03-23T02:50:33.216Z,97.19
2023-03-23T02:51:33.189Z,97.15
2023-03-23T02:52:33.201Z,97.19
2023-03-23T02:53:33.179Z,97.30
2023-03-23T02:54:33.156Z,97.50
2023-03-23T02:55:33.176Z,97.50
2023-03-23T02:56:33.127Z,97.50
2023-03-23T02:57:40.357Z,97.50
2023-03-23T02:58:33.135Z,97.71
2023-03-23T02:59:33.123Z,97.81
2023-03-23T03:00:33.113Z,97.81
2023-03-23T03:01:33.082Z,97.91
2023-03-23T03:02:33.070Z,98.02
2023-03-23T03:03:33.053Z,98.22
2023-03-23T03:04:33.085Z,98.43
2023-03-23T03:05:33.101Z,98.53
2023-03-23T03:06:33.027Z,98.63
2023-03-23T03:07:33.007Z,98.53
2023-03-23T03:08:33.037Z,98.53
2023-03-23T03:09:33.025Z,98.43
2023-03-23T03:10:32.980Z,98.43
2023-03-23T03:11:32.971Z,98.33
2023-03-23T03:12:32.970Z,98.22
2023-03-23T03:13:32.950Z,98.12
2023-03-23T03:14:32.970Z,98.22
2023-03-23T03:15:33.021Z,98.12
2023-03-23T03:16:32.922Z,98.02
2023-03-23T03:17:32.892Z,98.02
2023-03-23T03:18:32.879Z,98.22
2023-03-23T03:19:32.915Z,98.12
2023-03-23T03:20:32.874Z,98.12
2023-03-23T03:21:32.850Z,98.07
2023-03-23T03:22:32.840Z,98.12
2023-03-23T03:23:32.843Z,98.07
2023-03-23T03:24:32.829Z,98.07
2023-03-23T03:25:32.804Z,97.97
2023-03-23T03:26:32.818Z,97.87
2023-03-23T03:27:32.815Z,97.87
2023-03-23T03:28:32.771Z,97.97
2023-03-23T03:29:32.773Z,97.87
2023-03-23T03:30:32.761Z,97.66
2023-03-23T03:31:32.767Z,97.56
2023-03-23T03:32:32.732Z,97.56
2023-03-23T03:33:32.751Z,97.45
2023-03-23T03:34:32.722Z,97.36
2023-03-23T03:35:32.708Z,97.36
2023-03-23T03:36:32.675Z,97.36
2023-03-23T03:37:32.697Z,97.45
2023-03-23T03:38:32.691Z,97.36
2023-03-23T03:39:32.677Z,97.36
2023-03-23T03:40:32.663Z,97.45
2023-03-23T03:41:32.642Z,97.56
2023-03-23T03:42:32.622Z,97.56
2023-03-23T03:43:32.605Z,97.66
2023-03-23T03:44:32.603Z,97.66
2023-03-23T03:45:32.587Z,97.77
2023-03-23T03:46:32.561Z,97.81
2023-03-23T03:47:32.559Z,97.81
2023-03-23T03:48:32.553Z,98.02
2023-03-23T03:49:32.584Z,98.53
2023-03-23T03:50:32.537Z,98.74
2023-03-23T03:51:32.517Z,98.84
2023-03-23T03:52:32.524Z,98.94
2023-03-23T03:53:32.506Z,98.94
2023-03-23T03:54:32.488Z,99.05
2023-03-23T03:55:32.473Z,99.15
2023-03-23T03:56:32.472Z,99.15
2023-03-23T03:57:32.475Z,99.15
2023-03-23T03:58:32.501Z,99.05
2023-03-23T03:59:32.444Z,99.05
2023-03-23T04:00:32.434Z,99.15
2023-03-23T04:01:32.414Z,99.25
2023-03-23T04:02:32.434Z,99.25
2023-03-23T04:03:32.390Z,99.25
2023-03-23T04:04:32.404Z,99.25
2023-03-23T04:05:32.355Z,99.35
2023-03-23T04:06:32.345Z,99.35
2023-03-23T04:07:32.352Z,99.25
2023-03-23T04:08:32.329Z,99.35
2023-03-23T04:09:32.404Z,99.35
2023-03-23T04:10:32.663Z,99.25
2023-03-23T04:11:33.220Z,99.25
2023-03-23T04:12:32.314Z,99.35
2023-03-23T04:13:32.263Z,99.46
2023-03-23T04:14:32.258Z,99.35
2023-03-23T04:15:32.362Z,99.35
2023-03-23T04:16:32.260Z,99.35
2023-03-23T04:17:32.262Z,99.15
2023-03-23T04:18:32.267Z,99.15
2023-03-23T04:19:32.280Z,98.90
2023-03-23T04:20:32.512Z,98.84
2023-03-23T04:21:32.229Z,98.59
2023-03-23T04:22:32.269Z,98.59
2023-03-23T04:23:32.161Z,98.59
2023-03-23T04:24:56.399Z,98.79
2023-03-23T04:25:32.160Z,98.79
2023-03-23T04:26:32.178Z,98.90
2023-03-23T04:27:32.143Z,98.69
2023-03-23T04:28:32.146Z,98.69
2023-03-23T04:29:32.087Z,98.69
2023-03-23T04:30:32.087Z,98.69
2023-03-23T04:31:32.092Z,98.79
2023-03-23T04:32:32.050Z,98.79
2023-03-23T04:34:00.526Z,98.79
2023-03-23T04:34:32.038Z,98.94
2023-03-23T04:35:32.084Z,98.90
2023-03-23T04:36:57.047Z,98.90
2023-03-23T04:37:31.990Z,98.79
2023-03-23T04:38:32.032Z,98.79
2023-03-23T04:39:31.974Z,98.69
2023-03-23T04:40:31.979Z,98.59
2023-03-23T04:41:31.950Z,98.59
2023-03-23T04:42:31.959Z,98.59
2023-03-23T04:43:31.948Z,98.59
2023-03-23T04:44:31.933Z,98.49
2023-03-23T04:45:31.942Z,98.49
2023-03-23T04:46:31.907Z,98.38
2023-03-23T04:47:31.886Z,98.69
2023-03-23T04:48:31.874Z,98.79
2023-03-23T04:49:31.907Z,98.79
2023-03-23T04:50:31.849Z,98.90
2023-03-23T04:51:31.838Z,98.90
2023-03-23T04:52:31.856Z,99.00
2023-03-23T04:53:31.828Z,99.00
2023-03-23T04:54:31.820Z,99.00
2023-03-23T04:55:31.802Z,99.10
2023-03-23T04:56:31.781Z,99.10
2023-03-23T04:57:31.802Z,99.10
2023-03-23T04:58:31.776Z,99.00
2023-03-23T04:59:31.767Z,98.90
2023-03-23T05:00:31.741Z,98.90
2023-03-23T05:01:31.749Z,99.10
2023-03-23T05:02:31.715Z,99.21
2023-03-23T05:03:31.739Z,99.21
2023-03-23T05:04:31.737Z,99.35
2023-03-23T05:05:31.672Z,99.46
2023-03-23T05:06:31.693Z,99.46
2023-03-23T05:07:31.659Z,99.35
2023-03-23T05:08:31.662Z,99.31
2023-03-23T05:09:31.636Z,99.31
2023-03-23T05:10:31.627Z,99.31
2023-03-23T05:11:31.606Z,99.31
2023-03-23T05:12:31.654Z,99.21
2023-03-23T05:13:31.629Z,99.31
2023-03-23T05:14:31.574Z,99.10
2023-03-23T05:15:31.578Z,99.00
2023-03-23T05:16:31.556Z,99.00
2023-03-23T05:17:31.543Z,98.90
2023-03-23T05:18:31.568Z,98.90
2023-03-23T05:19:31.522Z,98.79
2023-03-23T05:20:31.530Z,98.69
2023-03-23T05:21:31.495Z,98.69
2023-03-23T05:22:31.502Z,98.69
2023-03-23T05:23:31.483Z,98.59
2023-03-23T05:24:31.466Z,98.79
2023-03-23T05:25:31.460Z,98.79
2023-03-23T05:26:32.504Z,98.59
2023-03-23T05:27:31.421Z,98.59
2023-03-23T05:28:31.490Z,98.79
2023-03-23T05:29:31.406Z,98.90
2023-03-23T05:30:31.412Z,98.79
2023-03-23T05:31:31.403Z,98.79
2023-03-23T05:32:31.381Z,98.79
2023-03-23T05:33:31.372Z,99.00
2023-03-23T05:34:31.360Z,99.10
2023-03-23T05:35:31.368Z,99.10
2023-03-23T05:36:31.363Z,99.21
2023-03-23T05:37:31.313Z,99.21
2023-03-23T05:38:31.316Z,99.21
2023-03-23T05:39:31.283Z,99.31
2023-03-23T05:40:31.308Z,99.41
2023-03-23T05:41:31.290Z,99.41
2023-03-23T05:42:31.267Z,99.51
2023-03-23T05:43:31.285Z,99.41
2023-03-23T05:44:31.239Z,99.51
2023-03-23T05:45:31.229Z,99.57
2023-03-23T05:46:31.215Z,99.57
2023-03-23T05:47:31.210Z,99.47
2023-03-23T05:48:31.223Z,99.37
2023-03-23T05:49:31.174Z,99.37
2023-03-23T05:50:31.172Z,99.26
2023-03-23T05:51:31.145Z,99.26
2023-03-23T05:52:31.172Z,99.16
2023-03-23T05:53:31.135Z,99.47
2023-03-23T05:54:31.140Z,99.26
2023-03-23T05:55:31.099Z,99.16
2023-03-23T05:56:31.113Z,99.05
2023-03-23T05:57:31.117Z,99.16
2023-03-23T05:58:31.073Z,99.26
2023-03-23T05:59:31.083Z,99.05
2023-03-23T06:00:31.166Z,99.11
2023-03-23T06:01:31.072Z,99.32
2023-03-23T06:02:31.044Z,99.32
2023-03-23T06:03:31.052Z,99.32
2023-03-23T06:04:31.077Z,99.42
2023-03-23T06:05:30.987Z,99.42
2023-03-23T06:06:30.992Z,99.42
2023-03-23T06:07:30.974Z,99.32
2023-03-23T06:08:31.015Z,98.96
2023-03-23T06:09:31.000Z,98.96
2023-03-23T06:10:30.947Z,98.96
2023-03-23T06:11:30.944Z,98.76
2023-03-23T06:12:30.936Z,98.55
2023-03-23T06:13:30.937Z,98.41
2023-03-23T06:14:30.928Z,98.10
2023-03-23T06:15:30.896Z,97.69
2023-03-23T06:16:30.868Z,96.31
2023-03-23T06:17:30.867Z,96.51
2023-03-23T06:18:30.869Z,96.47
2023-03-23T06:19:30.838Z,96.06
2023-03-23T06:20:30.972Z,96.01
2023-03-23T06:21:30.842Z,95.29
2023-03-23T06:22:30.825Z,91.16
2023-03-23T06:23:30.788Z,92.14
2023-03-23T06:24:30.780Z,88.31
2023-03-23T06:25:30.775Z,89.18
2023-03-23T06:26:30.770Z,88.06
2023-03-23T06:27:30.738Z,87.00
2023-03-23T06:28:30.733Z,84.98
2023-03-23T06:29:30.723Z,83.95
2023-03-23T06:30:30.733Z,83.34
2023-03-23T06:31:30.698Z,85.55
2023-03-23T06:32:30.689Z,84.53
2023-03-23T06:33:30.673Z,84.22
2023-03-23T06:34:30.665Z,85.61
2023-03-23T06:35:30.668Z,85.21
2023-03-23T06:36:30.661Z,85.92
2023-03-23T06:37:30.649Z,85.82
2023-03-23T06:38:30.617Z,85.51
2023-03-23T06:39:30.629Z,86.22
2023-03-23T06:40:30.611Z,87.14
2023-03-23T06:41:30.586Z,87.65
2023-03-23T06:42:30.597Z,88.06
2023-03-23T06:43:30.572Z,89.12
2023-03-23T06:44:30.573Z,88.10
2023-03-23T06:45:30.560Z,89.53
2023-03-23T06:46:30.531Z,90.04
2023-03-23T06:47:30.535Z,89.94
2023-03-23T06:48:30.523Z,91.06
2023-03-23T06:49:30.501Z,91.57
2023-03-23T06:50:30.500Z,91.67
2023-03-23T06:51:30.482Z,92.19
2023-03-23T06:52:30.495Z,92.33
2023-03-23T06:53:30.508Z,92.23
2023-03-23T06:54:30.465Z,92.43
2023-03-23T06:55:30.426Z,92.54
2023-03-23T06:56:30.436Z,92.84
2023-03-23T06:57:30.426Z,92.94
2023-03-23T06:58:30.423Z,90.45
2023-03-23T06:59:30.390Z,86.36
2023-03-23T07:00:30.394Z,85.21
2023-03-23T07:01:30.365Z,83.84
2023-03-23T07:02:30.369Z,83.53
2023-03-23T07:03:30.353Z,83.18
2023-03-23T07:04:30.342Z,80.50
2023-03-23T07:05:30.318Z,80.50
2023-03-23T07:06:30.304Z,82.13
2023-03-23T07:07:30.301Z,82.43
2023-03-23T07:08:30.278Z,83.04
2023-03-23T07:09:42.618Z,83.76
2023-03-23T07:10:30.285Z,84.98
2023-03-23T07:11:30.240Z,85.60
2023-03-23T07:12:30.241Z,86.00
2023-03-23T07:13:30.239Z,84.88
2023-03-23T07:14:30.228Z,83.96
2023-03-23T07:15:30.231Z,85.19
2023-03-23T07:16:30.219Z,86.61
2023-03-23T07:17:30.190Z,87.23
2023-03-23T07:18:30.176Z,87.06
2023-03-23T07:19:30.374Z,88.08
2023-03-23T07:20:30.180Z,89.92
2023-03-23T07:21:30.148Z,89.61
2023-03-23T07:22:30.132Z,90.53
2023-03-23T07:23:30.124Z,89.86
2023-03-23T07:24:30.115Z,90.47
2023-03-23T07:25:30.103Z,92.71
2023-03-23T07:26:30.077Z,93.43
2023-03-23T07:27:30.061Z,94.49
2023-03-23T07:28:30.067Z,94.59
2023-03-23T07:29:30.050Z,95.72
2023-03-23T07:30:30.073Z,96.43
2023-03-23T07:31:30.015Z,96.63
2023-03-23T07:32:30.016Z,96.63
2023-03-23T07:33:29.998Z,97.08
2023-03-23T07:34:29.990Z,97.19
2023-03-23T07:35:29.991Z,97.80
2023-03-23T07:36:29.968Z,98.00
2023-03-23T07:37:29.949Z,98.00
2023-03-23T07:38:29.962Z,97.70
2023-03-23T07:39:29.924Z,98.72
2023-03-23T07:40:29.960Z,99.43
2023-03-23T07:41:29.917Z,99.74
2023-03-23T07:42:29.911Z,99.99
2023-03-23T07:43:29.893Z,99.90
2023-03-23T07:44:29.871Z,99.59
2023-03-23T07:45:29.875Z,99.59
2023-03-23T07:46:29.864Z,99.69
2023-03-23T07:47:34.025Z,99.90
2023-03-23T07:48:29.843Z,99.99
2023-03-23T07:49:29.824Z,99.99
2023-03-23T07:50:29.859Z,99.90
2023-03-23T07:51:29.789Z,99.69
2023-03-23T07:52:29.784Z,99.08
2023-03-23T07:53:29.826Z,96.33
2023-03-23T07:54:29.782Z,94.18
2023-03-23T07:55:29.745Z,94.45
2023-03-23T07:56:29.745Z,95.57
2023-03-23T07:57:29.724Z,95.06
2023-03-23T07:58:29.720Z,94.20
2023-03-23T07:59:29.725Z,94.50
2023-03-23T08:00:29.711Z,94.81
2023-03-23T08:01:29.685Z,95.32
2023-03-23T08:02:29.668Z,94.97
2023-03-23T08:03:29.681Z,95.28
2023-03-23T08:04:29.668Z,95.28
2023-03-23T08:05:29.651Z,94.97
2023-03-23T08:06:29.630Z,93.24
2023-03-23T08:07:29.610Z,92.93
2023-03-23T08:08:29.601Z,92.83
2023-03-23T08:09:29.604Z,91.71
2023-03-23T08:10:29.584Z,91.71
2023-03-23T08:11:29.582Z,91.71
2023-03-23T08:12:29.557Z,91.91
2023-03-23T08:13:29.569Z,92.11
2023-03-23T08:14:29.524Z,93.24
2023-03-23T08:15:29.535Z,92.93
2023-03-23T08:16:29.509Z,92.32
2023-03-23T08:17:29.497Z,91.97
2023-03-23T08:18:29.508Z,89.87
2023-03-23T08:19:29.477Z,90.64
2023-03-23T08:20:29.489Z,89.73
2023-03-23T08:21:29.456Z,89.94
2023-03-23T08:22:29.429Z,90.95
2023-03-23T08:23:29.441Z,90.55
2023-03-23T08:24:29.409Z,90.64
2023-03-23T08:25:29.425Z,90.14
2023-03-23T08:26:29.414Z,89.63
2023-03-23T08:27:29.397Z,89.01
2023-03-23T08:28:29.374Z,88.10
2023-03-23T08:29:29.362Z,90.03
2023-03-23T08:30:29.341Z,88.71
2023-03-23T08:31:29.365Z,88.61
2023-03-23T08:32:29.343Z,87.49
2023-03-23T08:33:29.318Z,87.79
2023-03-23T08:34:29.312Z,88.31
2023-03-23T08:35:29.306Z,89.01
2023-03-23T08:36:29.293Z,89.12
2023-03-23T08:37:29.271Z,89.12
2023-03-23T08:38:29.253Z,89.32
2023-03-23T08:39:29.294Z,90.03
2023-03-23T08:40:29.242Z,89.83
2023-03-23T08:41:29.243Z,90.24
2023-03-23T08:42:29.240Z,89.94
2023-03-23T08:43:29.214Z,88.20
2023-03-23T08:44:29.195Z,89.22
2023-03-23T08:45:29.199Z,89.42
2023-03-23T08:46:29.180Z,87.79
2023-03-23T08:47:29.157Z,87.90
2023-03-23T08:48:29.171Z,88.71
2023-03-23T08:49:29.165Z,89.38
2023-03-23T08:50:29.120Z,89.07
2023-03-23T08:51:29.132Z,87.29
2023-03-23T08:52:29.107Z,89.79
2023-03-23T08:53:29.087Z,90.09
2023-03-23T08:54:29.090Z,86.53
2023-03-23T08:55:29.079Z,86.74
2023-03-23T08:56:29.049Z,88.06
2023-03-23T08:57:29.048Z,88.16
2023-03-23T08:58:29.046Z,88.98
2023-03-23T08:59:29.079Z,88.77
2023-03-23T09:00:33.803Z,87.55
2023-03-23T09:01:29.005Z,89.07
2023-03-23T09:02:28.993Z,87.24
2023-03-23T09:03:28.994Z,87.92
2023-03-23T09:04:28.974Z,88.32
2023-03-23T09:05:28.977Z,86.49
2023-03-23T09:06:28.990Z,88.06
2023-03-23T09:07:28.968Z,88.57
2023-03-23T09:08:28.913Z,89.38
2023-03-23T09:09:28.943Z,87.45
2023-03-23T09:10:28.898Z,86.94
2023-03-23T09:11:28.881Z,86.83
2023-03-23T09:12:28.892Z,87.35
2023-03-23T09:13:28.874Z,87.04
2023-03-23T09:14:28.848Z,88.93
2023-03-23T09:15:34.130Z,86.49
2023-03-23T09:16:28.835Z,87.30
2023-03-23T09:17:28.816Z,86.90
2023-03-23T09:18:28.806Z,86.90
2023-03-23T09:19:28.796Z,87.30
2023-03-23T09:20:28.779Z,85.37
2023-03-23T09:21:28.790Z,86.08
2023-03-23T09:22:28.773Z,85.98
2023-03-23T09:23:28.769Z,86.35
2023-03-23T09:24:28.752Z,85.74
2023-03-23T09:25:28.733Z,86.35
2023-03-23T09:26:28.728Z,86.76
2023-03-23T09:27:28.725Z,87.26
2023-03-23T09:28:28.730Z,85.94
2023-03-23T09:29:28.680Z,86.35
2023-03-23T09:30:28.684Z,86.45
2023-03-23T09:31:28.680Z,86.25
2023-03-23T09:32:28.655Z,84.72
2023-03-23T09:33:28.673Z,85.49
2023-03-23T09:34:28.648Z,86.61
2023-03-23T09:35:28.623Z,86.21
2023-03-23T09:36:28.598Z,87.23
2023-03-23T09:37:28.695Z,84.07
2023-03-23T09:38:28.588Z,84.58
2023-03-23T09:39:28.574Z,84.88
2023-03-23T09:40:28.560Z,84.28
2023-03-23T09:41:28.561Z,86.51
2023-03-23T09:42:28.540Z,85.80
2023-03-23T09:43:28.528Z,85.05
2023-03-23T09:44:28.531Z,84.44
2023-03-23T09:45:28.530Z,84.95
2023-03-23T09:46:28.489Z,84.74
2023-03-23T09:47:28.506Z,85.15
2023-03-23T09:48:28.488Z,85.25
2023-03-23T09:49:28.462Z,85.25
2023-03-23T09:50:28.444Z,83.01
2023-03-23T09:51:28.455Z,84.13
2023-03-23T09:52:28.433Z,84.34
2023-03-23T09:53:28.411Z,83.89
2023-03-23T09:54:28.423Z,83.18
2023-03-23T09:55:28.406Z,82.17
2023-03-23T09:56:28.374Z,82.17
2023-03-23T09:57:28.364Z,82.06
2023-03-23T09:58:28.375Z,82.73
2023-03-23T09:59:28.354Z,80.64
2023-03-23T10:00:28.379Z,81.35
2023-03-23T10:01:28.334Z,82.43
2023-03-23T10:02:28.318Z,82.12
2023-03-23T10:03:28.350Z,80.40
2023-03-23T10:04:28.284Z,78.67
2023-03-23T10:05:28.323Z,77.66
2023-03-23T10:06:28.278Z,79.38
2023-03-23T10:07:28.257Z,80.30
2023-03-23T10:08:28.259Z,79.28
2023-03-23T10:09:28.251Z,77.25
2023-03-23T10:10:28.215Z,77.15
2023-03-23T10:11:28.216Z,78.41
2023-03-23T10:12:28.191Z,80.19
2023-03-23T10:13:28.210Z,78.57
2023-03-23T10:14:28.198Z,79.18
2023-03-23T10:15:28.174Z,80.40
2023-03-23T10:16:28.163Z,79.18
2023-03-23T10:17:28.198Z,79.45
2023-03-23T10:18:28.138Z,80.57
2023-03-23T10:19:28.118Z,79.25
2023-03-23T10:20:28.126Z,79.55
2023-03-23T10:21:28.113Z,78.94
2023-03-23T10:22:28.118Z,77.62
2023-03-23T10:23:28.102Z,77.72
2023-03-23T10:24:28.079Z,78.30
2023-03-23T10:25:28.061Z,75.76
2023-03-23T10:26:28.056Z,77.69
2023-03-23T10:27:28.053Z,75.49
2023-03-23T10:28:28.028Z,78.80
2023-03-23T10:29:28.020Z,79.82
2023-03-23T10:30:28.001Z,77.18
2023-03-23T10:31:28.023Z,79.72
2023-03-23T10:32:27.969Z,79.41
2023-03-23T10:33:27.981Z,76.06
2023-03-23T10:34:27.954Z,77.38
2023-03-23T10:35:27.939Z,79.72
2023-03-23T10:36:27.929Z,77.08
2023-03-23T10:37:27.968Z,75.25
2023-03-23T10:38:27.916Z,74.95
2023-03-23T10:39:27.915Z,77.79
2023-03-23T10:40:27.899Z,77.59
2023-03-23T10:41:27.886Z,76.67
2023-03-23T10:42:27.886Z,74.54
2023-03-23T10:43:27.856Z,75.35
2023-03-23T10:44:27.864Z,77.28
2023-03-23T10:45:27.847Z,77.59
2023-03-23T10:46:32.247Z,77.52
2023-03-23T10:47:27.892Z,76.57
2023-03-23T10:48:27.813Z,74.44
2023-03-23T10:49:27.793Z,75.05
2023-03-23T10:50:27.801Z,75.96
2023-03-23T10:51:27.773Z,76.33
2023-03-23T10:52:27.757Z,76.47
2023-03-23T10:53:27.759Z,74.44
2023-03-23T10:54:27.725Z,71.80
2023-03-23T10:55:27.735Z,73.12
2023-03-23T10:56:27.717Z,74.27
2023-03-23T10:57:27.690Z,74.68
2023-03-23T10:58:27.760Z,75.90
2023-03-23T10:59:27.679Z,76.87
2023-03-23T11:00:27.667Z,73.77
2023-03-23T11:01:27.678Z,75.39
2023-03-23T11:02:29.737Z,75.70
2023-03-23T11:03:27.639Z,76.71
2023-03-23T11:04:27.608Z,76.27
2023-03-23T11:05:27.606Z,76.27
2023-03-23T11:06:27.597Z,76.27
2023-03-23T11:07:27.631Z,74.44
2023-03-23T11:08:27.574Z,76.17
2023-03-23T11:09:27.563Z,75.46
2023-03-23T11:10:27.551Z,73.90
2023-03-23T11:11:27.534Z,75.32
2023-03-23T11:12:27.533Z,76.74
2023-03-23T11:13:27.530Z,75.22
2023-03-23T11:14:27.580Z,72.75
2023-03-23T11:15:27.494Z,73.76
2023-03-23T11:16:27.469Z,73.86
2023-03-23T11:17:27.481Z,72.55
2023-03-23T11:18:27.449Z,70.32
2023-03-23T11:19:27.444Z,72.01
2023-03-23T11:20:27.426Z,73.83
2023-03-23T11:21:27.433Z,73.63
2023-03-23T11:22:27.414Z,75.76
2023-03-23T11:23:27.414Z,71.09
2023-03-23T11:24:27.409Z,72.28
2023-03-23T11:25:27.383Z,71.40
2023-03-23T11:26:27.378Z,72.52
2023-03-23T11:27:27.360Z,72.81
2023-03-23T11:28:27.333Z,70.65
2023-03-23T11:29:27.341Z,73.80
2023-03-23T11:30:27.330Z,72.48
2023-03-23T11:31:27.331Z,71.77
2023-03-23T11:32:27.290Z,69.65
2023-03-23T11:33:27.292Z,70.05
2023-03-23T11:34:27.292Z,70.86
2023-03-23T11:35:27.265Z,70.65
2023-03-23T11:36:27.259Z,70.65
2023-03-23T11:37:27.238Z,71.06
2023-03-23T11:38:27.225Z,70.22
2023-03-23T11:39:27.227Z,70.32
2023-03-23T11:40:27.217Z,68.97
2023-03-23T11:41:27.194Z,71.09
2023-03-23T11:42:27.186Z,71.67
2023-03-23T11:43:27.757Z,68.54
2023-03-23T11:44:27.168Z,67.83
2023-03-23T11:45:27.163Z,69.11
2023-03-23T11:46:27.124Z,70.66
2023-03-23T11:47:27.144Z,70.32
2023-03-23T11:48:27.116Z,68.91
2023-03-23T11:49:28.825Z,68.40
2023-03-23T11:50:27.077Z,67.39
2023-03-23T11:51:27.094Z,67.69
2023-03-23T11:52:27.072Z,69.62
2023-03-23T11:53:27.069Z,68.71
2023-03-23T11:54:27.050Z,67.22
2023-03-23T11:55:27.057Z,67.93
2023-03-23T11:56:27.034Z,68.00
2023-03-23T11:57:27.012Z,68.40
2023-03-23T11:58:26.999Z,67.09
2023-03-23T11:59:26.989Z,66.41
2023-03-23T12:00:26.967Z,65.78
2023-03-23T12:01:26.972Z,67.72
2023-03-23T12:02:26.955Z,69.11
2023-03-23T12:03:26.957Z,68.91
2023-03-23T12:04:26.951Z,64.87
2023-03-23T12:05:26.925Z,63.05
2023-03-23T12:06:28.836Z,65.50
2023-03-23T12:07:26.905Z,64.93
2023-03-23T12:08:26.882Z,65.40
2023-03-23T12:09:26.873Z,66.31
2023-03-23T12:10:35.610Z,65.40
2023-03-23T12:11:27.386Z,66.69
2023-03-23T12:12:26.829Z,65.10
2023-03-23T12:13:26.820Z,65.20
2023-03-23T12:14:33.078Z,65.70
2023-03-23T12:15:26.808Z,63.96
2023-03-23T12:16:26.802Z,63.65
2023-03-23T12:17:26.790Z,64.67
2023-03-23T12:18:26.765Z,66.69
2023-03-23T12:19:26.765Z,64.56
2023-03-23T12:20:34.269Z,66.58
2023-03-23T12:21:26.735Z,67.49
2023-03-23T12:22:26.748Z,67.43
2023-03-23T12:23:26.848Z,66.52
2023-03-23T12:24:26.708Z,66.21
2023-03-23T12:25:26.830Z,66.82
2023-03-23T12:26:26.680Z,66.41
2023-03-23T12:27:26.659Z,66.08
2023-03-23T12:28:26.648Z,66.38
2023-03-23T12:29:26.673Z,66.48
2023-03-23T12:30:26.628Z,66.11
2023-03-23T12:31:26.632Z,66.11
2023-03-23T12:32:26.640Z,66.52
2023-03-23T12:33:26.594Z,66.41
2023-03-23T12:34:26.607Z,65.81
2023-03-23T12:35:27.420Z,65.70
2023-03-23T12:36:26.638Z,66.01
2023-03-23T12:37:26.590Z,65.20
2023-03-23T12:38:26.544Z,65.84
2023-03-23T12:39:26.554Z,65.33
2023-03-23T12:40:26.514Z,66.55
2023-03-23T12:41:26.512Z,65.64
2023-03-23T12:42:26.512Z,65.81
2023-03-23T12:43:26.499Z,67.72
2023-03-23T12:44:26.518Z,68.23
2023-03-23T12:45:26.487Z,66.41
2023-03-23T12:46:26.454Z,66.92
2023-03-23T12:47:26.436Z,67.72
2023-03-23T12:48:26.954Z,66.82
2023-03-23T12:49:26.427Z,65.61
2023-03-23T12:50:26.420Z,66.61
2023-03-23T12:51:26.382Z,66.11
2023-03-23T12:52:26.405Z,65.57